M I D A S
Marine Information and Data Acquisition System
Tripno 693 of the Zeeleeuw from 2004-04-13 07:03:55 to 2004-04-13 14:33:18
Back to CruiseResearch ActivitiesStationsMapUnderway DataData graphs

EquipmentUnitsComment
TimeDGPSUTC
LatitudeDGPSDM.mWGS84
LongitudeDGPSDM.mWGS84
TemperatureSBE03/SBE38deg celciusITS90
ConductivitySBE21S/mITS90
SalinitySBE21 Practical Salinity Units
ChlorophylAChelsea fluorimeterg/lCalibrated in Aceton
Missing or incorrect values are displayed as -999
Sea surface data collected by the RV Zeeleeuw from 2004-04-13 07:03:55 to 2004-04-13 14:33:18
Time Latitude Longitude Temperature Conductivity Salinity ChlorophylA
2004-04-13 07:04:55 51°13.597 2°56.094 15.064096 4.857926 34.76661 -0.882377
2004-04-13 07:05:56 51°13.618 2°56.011 15.069225 4.857504 34.76663 -0.882377
2004-04-13 07:06:56 51°13.66 2°55.899 15.078872 4.857082 34.767219 -0.882377
2004-04-13 07:07:56 51°13.701 2°55.78 15.083695 4.856766 34.768087 -0.882377
2004-04-13 07:08:55 51°13.71 2°55.749 15.090995 0.086248 0.45714 -0.848668
2004-04-13 07:09:55 51°13.722 2°55.741 15.060619 0.076475 0.404628 -0.882377
2004-04-13 07:10:55 51°13.754 2°55.716 15.069399 0.071589 0.378071 -0.848668
2004-04-13 07:11:55 51°13.835 2°55.632 15.066791 0.066079 0.348143 -0.848668
2004-04-13 07:12:55 51°13.944 2°55.549 15.079698 0.061297 0.322334 -0.882377
2004-04-13 07:13:55 51°14.063 2°55.462 15.089561 0.057555 0.302212 -0.882377
2004-04-13 07:14:55 51°14.207 2°55.342 15.097685 0.054541 0.286044 -0.882377
2004-04-13 07:15:55 51°14.333 2°55.128 15.103288 0.051215 0.26824 -0.882377
2004-04-13 07:16:55 51°14.455 2°54.868 15.106937 0.048513 0.253812 -0.882377
2004-04-13 07:17:55 51°14.666 2°54.779 15.123484 0.048721 0.254946 -0.882377
2004-04-13 07:18:55 51°14.894 2°54.888 15.129433 0.045187 0.236134 -0.882377
2004-04-13 07:19:55 51°15.128 2°54.958 15.130171 0.044667 0.233397 -0.848668
2004-04-13 07:20:55 51°15.364 2°55.005 15.131126 0.04342 0.226808 -0.882377
2004-04-13 07:21:55 51°15.575 2°55.182 15.142154 0.042589 0.222439 -0.848668
2004-04-13 07:22:55 51°15.742 2°55.465 15.149968 0.041549 0.216968 -0.848668
2004-04-13 07:23:55 51°15.89 2°55.773 15.157 0.04051 0.211515 -0.882377
2004-04-13 07:24:56 51°16.04 2°56.088 15.191887 0.048721 0.255447 -0.882377
2004-04-13 07:25:55 51°16.179 2°56.402 15.505456 1.247281 7.840617 -0.848668
2004-04-13 07:26:55 51°16.317 2°56.722 21.859166 1.280489 8.073909 -0.848668
2004-04-13 07:27:55 51°16.453 2°57.039 23.113741 1.189886 7.459487 -0.848668
2004-04-13 07:28:56 51°16.593 2°57.362 24.181996 1.262575 7.952405 -0.882377
2004-04-13 07:29:56 51°16.729 2°57.682 27.684769 1.275565 8.041786 -0.882377
2004-04-13 07:30:55 51°16.864 2°57.996 30.840845 1.228846 7.724733 -0.848668
2004-04-13 07:31:55 51°17 2°58.315 31.537615 1.301023 8.21731 -0.848668
2004-04-13 07:32:55 51°17.136 2°58.633 35.04933 1.285308 8.111623 -0.848668
2004-04-13 07:33:55 51°17.271 2°58.953 38.412635 1.265089 7.974944 -0.848668
2004-04-13 07:34:55 51°17.407 2°59.276 38.758619 1.196903 7.513074 -0.882377
2004-04-13 07:35:55 51°17.544 2°59.599 40.995671 1.176587 7.377158 -0.848668
2004-04-13 07:36:55 51°17.68 2°59.922 40.652081 1.224867 7.706319 -0.882377
2004-04-13 07:37:55 51°17.815 3°0.246 48.546105 1.191353 7.480552 -0.848668
2004-04-13 07:38:55 51°17.949 3°0.569 47.159502 1.149467 7.198936 -0.882377
2004-04-13 07:39:56 51°18.086 3°0.897 46.572736 1.082362 6.74824 -0.848668
2004-04-13 07:40:55 51°18.22 3°1.215 -999 1.080687 6.738843 -0.882377
2004-04-13 07:41:55 51°18.358 3°1.534 -999 1.054521 6.564748 -0.882377
2004-04-13 07:42:55 51°18.496 3°1.854 -999 1.130412 7.077376 -0.882377
2004-04-13 07:43:55 51°18.633 3°2.175 -999 1.128214 7.064248 -0.848668
2004-04-13 07:44:55 51°18.771 3°2.498 -999 1.125492 7.04781 -0.916087
2004-04-13 07:45:55 51°18.905 3°2.823 -999 0.985457 6.109231 -0.848668
2004-04-13 07:46:55 51°19.04 3°3.144 -999 1.129575 7.079191 -0.882377
2004-04-13 07:47:55 51°19.174 3°3.467 -999 1.046044 6.518161 -0.848668
2004-04-13 07:48:55 51°19.309 3°3.789 -999 1.005651 6.249087 -0.882377
2004-04-13 07:49:55 51°19.444 3°4.11 -999 1.098273 6.873431 -0.882377
2004-04-13 07:50:55 51°19.579 3°4.435 -999 0.982005 6.094311 -0.882377
2004-04-13 07:51:55 51°19.711 3°4.761 -999 0.947377 5.865098 -0.848668
2004-04-13 07:52:55 51°19.845 3°5.085 -999 0.984725 6.115967 -0.882377
2004-04-13 07:53:55 51°19.979 3°5.409 -999 1.077024 6.73773 -0.882377
2004-04-13 07:54:56 51°20.115 3°5.737 -999 1.005546 6.258971 -0.882377
2004-04-13 07:55:55 51°20.246 3°6.055 -999 1.015278 6.326182 -0.848668
2004-04-13 07:56:55 51°20.379 3°6.377 -999 1.008476 6.282398 -0.848668
2004-04-13 07:57:55 51°20.536 3°6.666 -999 1.063732 6.655841 -0.848668
2004-04-13 07:58:56 51°20.698 3°6.961 -999 0.970601 6.032408 -0.882377
2004-04-13 07:59:55 51°20.856 3°7.245 -999 1.03673 6.477987 -0.848668
2004-04-13 08:00:55 51°21.014 3°7.536 -999 1.081735 6.783652 -0.882377
2004-04-13 08:01:55 51°21.171 3°7.829 -999 1.125388 7.081177 -0.882377
2004-04-13 08:02:55 51°21.305 3°8.149 -999 1.006802 6.282644 -0.916087
2004-04-13 08:03:55 51°21.442 3°8.472 -999 1.049708 6.573123 -0.882377
2004-04-13 08:04:55 51°21.57 3°8.802 -999 1.090423 6.850581 -0.882377
2004-04-13 08:05:56 51°21.693 3°9.142 -999 0.939951 5.839702 -0.882377
2004-04-13 08:06:55 51°21.813 3°9.47 -999 0.964639 6.006747 -0.882377
2004-04-13 08:07:55 51°21.936 3°9.805 -999 1.026684 6.425606 -0.882377
2004-04-13 08:08:55 51°22.046 3°10.144 -999 0.915894 5.684235 -0.882377
2004-04-13 08:09:55 51°22.135 3°10.497 -999 1.064779 6.686694 -0.882377
2004-04-13 08:10:55 51°22.203 3°10.865 -999 1.044475 6.551431 -0.848668
2004-04-13 08:11:55 51°22.273 3°11.231 -999 0.997072 6.233692 -0.882377
2004-04-13 08:12:55 51°22.344 3°11.598 -999 1.050022 6.592819 -0.882377
2004-04-13 08:13:56 51°22.405 3°11.979 -999 1.012035 6.338222 -0.882377
2004-04-13 08:14:55 51°22.455 3°12.353 -999 1.067605 6.716172 -0.848668
2004-04-13 08:15:55 51°22.504 3°12.732 -999 0.958467 5.981554 -0.882377
2004-04-13 08:16:55 51°22.563 3°13.102 -999 1.00063 6.267406 -0.882377
2004-04-13 08:17:55 51°22.629 3°13.469 -999 1.016639 6.377446 -0.848668
2004-04-13 08:18:55 51°22.696 3°13.835 -999 1.048871 6.597698 -0.848668
2004-04-13 08:19:55 51°22.761 3°14.2 -999 1.03401 6.498854 -0.882377
2004-04-13 08:20:55 51°22.828 3°14.564 -999 1.055465 6.646337 -0.882377
2004-04-13 08:21:55 51°22.893 3°14.929 -999 1.033069 6.496538 -0.848668
2004-04-13 08:22:56 51°22.958 3°15.301 -999 1.023546 6.434065 -0.848668
2004-04-13 08:23:56 51°23.022 3°15.666 -999 1.007954 6.330656 -0.882377
2004-04-13 08:24:55 51°23.062 3°16.03 -999 0.963802 6.034535 -0.916087
2004-04-13 08:25:55 51°23.102 3°16.399 -999 1.06635 6.730544 -0.882377
2004-04-13 08:26:55 51°23.142 3°16.769 -999 1.007431 6.332647 -0.848668
2004-04-13 08:27:55 51°23.185 3°17.141 -999 1.016535 6.396406 -0.882377
2004-04-13 08:28:55 51°23.236 3°17.51 -999 1.033069 6.510261 -0.882377
2004-04-13 08:29:55 51°23.287 3°17.88 -999 1.010361 6.35804 -0.882377
2004-04-13 08:30:56 51°23.337 3°18.253 -999 0.972904 6.106352 -0.848668
2004-04-13 08:31:55 51°23.388 3°18.612 -999 0.978763 6.147564 -0.882377
2004-04-13 08:32:55 51°23.44 3°18.975 -999 1.020511 6.432063 -0.882377
2004-04-13 08:33:55 51°23.491 3°19.337 -999 0.933571 5.845782 -0.848668
2004-04-13 08:34:55 51°23.542 3°19.697 -999 1.072839 6.791622 -0.882377
2004-04-13 08:35:55 51°23.59 3°20.054 -999 1.01078 6.371188 -0.882377
2004-04-13 08:36:55 51°23.639 3°20.409 -999 1.02993 6.502907 -0.882377
2004-04-13 08:37:55 51°23.688 3°20.764 -999 0.950308 5.964905 -0.882377
2004-04-13 08:38:55 51°23.736 3°21.12 -999 0.997178 6.284003 -0.882377
2004-04-13 08:39:56 51°23.783 3°21.484 -999 1.039662 6.574249 -0.882377
2004-04-13 08:40:55 51°23.816 3°21.84 -999 1.003246 6.328231 -0.882377
2004-04-13 08:41:55 51°23.852 3°22.202 -999 0.973218 6.126181 -0.882377
2004-04-13 08:42:55 51°23.888 3°22.565 -999 0.953446 5.99374 -0.882377
2004-04-13 08:43:56 51°23.927 3°22.934 -999 0.953133 5.993207 -0.916087
2004-04-13 08:44:55 51°23.964 3°23.289 -999 1.016117 6.422302 -0.882377
2004-04-13 08:45:55 51°24.002 3°23.65 -999 0.958259 6.030995 -0.848668
2004-04-13 08:46:55 51°24.041 3°24.009 -999 1.063734 6.750621 -0.848668
2004-04-13 08:47:55 51°24.08 3°24.367 -999 0.9909 6.255718 -0.882377
2004-04-13 08:48:56 51°24.121 3°24.731 -999 0.953865 6.00593 -0.848668
2004-04-13 08:49:55 51°24.159 3°25.084 -999 1.025535 6.49474 -0.882377
2004-04-13 08:50:55 51°24.198 3°25.443 -999 1.037256 6.57638 -0.882377
2004-04-13 08:51:55 51°24.237 3°25.802 -999 0.970708 6.124808 -0.882377
2004-04-13 08:52:56 51°24.29 3°26.16 -999 1.01978 6.460211 -0.882377
2004-04-13 08:53:55 51°24.344 3°26.504 -999 1.014443 6.425622 -0.882377
2004-04-13 08:54:55 51°24.398 3°26.853 -999 1.002514 6.345767 -0.882377
2004-04-13 08:55:55 51°24.453 3°27.203 -999 2.405166 16.404358 -0.882377
2004-04-13 08:56:55 51°24.492 3°27.558 -999 2.407375 16.472661 -0.882377
2004-04-13 08:57:56 51°24.53 3°27.914 8.945675 3.929819 34.396769 6.5674
2004-04-13 08:58:55 51°24.559 3°28.256 8.824053 3.313211 30.381781 8.252871
2004-04-13 08:59:55 51°24.587 3°28.605 8.826393 3.292886 30.370588 8.522546
2004-04-13 09:00:55 51°24.615 3°28.955 8.832745 3.289727 30.39783 7.578683
2004-04-13 09:01:56 51°24.642 3°29.311 8.842151 3.286147 30.408918 7.646101
2004-04-13 09:02:56 51°24.672 3°29.658 8.835562 3.281829 30.394182 7.544973
2004-04-13 09:03:55 51°24.711 3°29.997 8.823719 3.283725 30.41363 6.870785
2004-04-13 09:04:55 51°24.742 3°30.343 8.810727 3.277301 30.385716 7.511264
2004-04-13 09:05:56 51°24.762 3°30.684 8.826393 3.262662 30.233332 6.803366
2004-04-13 09:06:54 51°24.778 3°31.001 8.834703 3.245075 30.057108 5.758375
2004-04-13 09:07:56 51°24.798 3°31.338 8.822238 3.230542 29.926161 6.02805
2004-04-13 09:08:56 51°24.817 3°31.666 8.835419 3.227172 29.890914 6.398853
2004-04-13 09:09:55 51°24.836 3°31.993 8.829689 3.233807 29.958944 5.960631
2004-04-13 09:10:56 51°24.859 3°32.328 8.816268 3.228331 29.915975 6.196597
2004-04-13 09:11:55 51°24.883 3°32.652 8.820853 3.227278 29.912808 5.825794
2004-04-13 09:12:55 51°24.906 3°32.987 8.826632 3.229384 29.933029 6.162888
2004-04-13 09:13:55 51°24.934 3°33.328 8.854182 3.233491 29.970303 5.690956
2004-04-13 09:14:56 51°24.973 3°33.67 8.845207 3.246971 30.096084 4.848221
2004-04-13 09:15:55 51°25.006 3°33.997 8.829402 3.250341 30.142558 5.084187
2004-04-13 09:16:55 51°25.026 3°34.323 8.861342 3.245496 30.089329 4.443708
2004-04-13 09:17:55 51°25.056 3°34.596 8.867594 3.243601 30.075455 4.612255
2004-04-13 09:18:56 51°25.06 3°34.786 8.865065 3.246128 30.076972 4.848221
2004-04-13 09:19:55 51°25.002 3°34.851 8.864874 3.244864 30.071679 5.084187
2004-04-13 09:20:56 51°25.005 3°34.833 8.855471 3.243074 30.045644 4.241452
2004-04-13 09:21:56 51°25.005 3°34.811 8.847355 3.242127 30.056833 4.848221
2004-04-13 09:22:55 51°24.991 3°34.756 8.876423 3.242232 30.057913 4.848221
2004-04-13 09:23:55 51°24.984 3°34.69 8.875421 3.244127 30.045299 4.780802
2004-04-13 09:24:55 51°24.98 3°34.622 8.870983 3.243601 30.053136 5.151606
2004-04-13 09:25:56 51°24.975 3°34.549 8.852177 3.242864 30.056727 5.4887
2004-04-13 09:26:55 51°24.967 3°34.481 8.856282 3.242127 30.056833 4.983059
2004-04-13 09:27:55 51°24.957 3°34.415 8.873082 3.242548 30.049999 4.612255
2004-04-13 09:28:56 51°24.945 3°34.349 8.871269 3.242863 30.045574 4.612255
2004-04-13 09:29:56 51°24.933 3°34.286 8.870267 3.242863 30.047664 4.511127
2004-04-13 09:30:56 51°24.921 3°34.222 8.87628 3.242758 30.05216 4.713383
2004-04-13 09:31:55 51°24.908 3°34.16 8.882101 3.24339 30.052369 4.645965
2004-04-13 09:32:56 51°24.893 3°34.097 8.883771 3.243917 30.057771 5.556118
2004-04-13 09:33:55 51°24.878 3°34.038 8.903856 3.245286 30.060662 5.421281
2004-04-13 09:34:55 51°24.861 3°33.98 8.90357 3.247286 30.063761 5.084187
2004-04-13 09:35:55 51°24.821 3°33.956 8.897798 3.247813 30.084492 4.983059
2004-04-13 09:36:55 51°24.831 3°34.018 8.956828 3.246549 30.045763 5.219024
2004-04-13 09:37:56 51°24.916 3°33.942 8.953015 3.221274 29.760065 6.162888
2004-04-13 09:38:56 51°24.984 3°33.739 9.00409 3.221801 29.748934 5.589828
2004-04-13 09:39:55 51°25.066 3°33.503 8.864731 3.243706 30.018021 5.45499
2004-04-13 09:40:55 51°25.165 3°33.228 8.821856 3.243285 30.085479 7.241589
2004-04-13 09:41:55 51°25.277 3°32.869 8.903999 3.242969 30.082933 6.60111
2004-04-13 09:42:55 51°25.379 3°32.499 8.9267 3.253079 30.131518 5.657247
2004-04-13 09:43:55 51°25.479 3°32.127 8.903999 3.261504 30.211641 5.926922
2004-04-13 09:44:56 51°25.581 3°31.749 8.974031 3.26719 30.218877 4.747093
2004-04-13 09:45:55 51°25.675 3°31.378 8.878809 3.269191 30.258969 5.556118
2004-04-13 09:46:55 51°25.774 3°31.001 8.911964 3.266875 30.269549 7.241589
2004-04-13 09:47:55 51°25.833 3°30.608 8.943482 3.268665 30.256373 5.724665
2004-04-13 09:48:55 51°25.885 3°30.209 8.869694 3.267928 30.285971 6.837076
2004-04-13 09:49:55 51°25.937 3°29.815 8.879286 3.265716 30.281521 7.949486
2004-04-13 09:50:55 51°25.992 3°29.427 8.880336 3.267612 30.293962 6.803366
2004-04-13 09:51:56 51°26.049 3°29.035 8.870601 3.267401 30.293907 6.735947
2004-04-13 09:52:55 51°26.106 3°28.657 8.841101 3.267402 30.324146 7.376426
2004-04-13 09:53:55 51°26.168 3°28.274 8.824626 3.268139 30.354274 6.735947
2004-04-13 09:54:55 51°26.229 3°27.89 8.805377 3.274142 30.419567 7.578683
2004-04-13 09:55:55 51°26.291 3°27.503 8.834703 3.272141 30.385561 6.971913
2004-04-13 09:56:55 51°26.383 3°27.132 8.828447 3.274668 30.372762 6.230306
2004-04-13 09:57:56 51°26.498 3°26.805 8.807097 3.283726 30.529563 7.983195
2004-04-13 09:58:55 51°26.583 3°26.708 8.855232 3.282779 30.519801 8.118033
2004-04-13 09:59:56 51°26.606 3°26.668 8.856664 3.277933 30.419709 6.432563
2004-04-13 10:00:55 51°26.634 3°26.657 8.833843 3.279619 30.454699 7.544973
2004-04-13 10:01:56 51°26.65 3°26.677 8.814262 3.283621 30.512164 10.342853
2004-04-13 10:02:55 51°26.659 3°26.702 8.80638 3.281515 30.506786 8.85964
2004-04-13 10:03:56 51°26.671 3°26.729 8.81474 3.281094 30.506704 8.657383
2004-04-13 10:04:55 51°26.688 3°26.755 8.887064 3.281514 30.474906 6.803366
2004-04-13 10:05:56 51°26.721 3°26.769 8.913777 3.285832 30.459922 5.556118
2004-04-13 10:06:56 51°26.765 3°26.762 8.887922 3.287938 30.504172 6.365144
2004-04-13 10:07:55 51°26.813 3°26.731 8.90314 3.287412 30.503712 6.398853
2004-04-13 10:08:55 51°26.859 3°26.675 8.937237 3.287728 30.487161 5.960631
2004-04-13 10:09:56 51°26.894 3°26.6 8.970648 3.287306 30.439096 5.522409
2004-04-13 10:10:55 51°26.914 3°26.522 8.937237 3.289201 30.459951 5.859503
2004-04-13 10:11:55 51°26.92 3°26.45 8.887302 3.290466 30.512462 7.073042
2004-04-13 10:12:55 51°26.918 3°26.392 8.865542 3.291098 30.546564 8.016905
2004-04-13 10:13:55 51°26.907 3°26.357 8.847689 3.291836 30.578975 9.028187
2004-04-13 10:14:55 51°26.889 3°26.351 8.862249 3.291625 30.579648 9.736084
2004-04-13 10:15:55 51°26.868 3°26.366 8.900088 3.290887 30.534482 7.679811
2004-04-13 10:16:56 51°26.826 3°26.442 8.852272 3.291414 30.544144 7.410136
2004-04-13 10:17:56 51°26.743 3°26.57 8.874991 3.291625 30.582489 7.882067
2004-04-13 10:18:56 51°26.658 3°26.694 8.951871 3.288149 30.470302 5.758375
2004-04-13 10:19:56 51°26.601 3°26.695 8.931325 3.285726 30.459547 5.724665
2004-04-13 10:20:55 51°26.57 3°26.679 9.009996 3.286042 30.470558 5.522409
2004-04-13 10:21:55 51°26.551 3°26.672 9.161872 3.294887 30.36306 2.825657
2004-04-13 10:22:56 51°26.541 3°26.674 9.108021 3.293939 30.340818 2.387435
2004-04-13 10:23:56 51°26.537 3°26.678 9.011519 3.288674 30.365322 2.589691
2004-04-13 10:24:57 51°26.538 3°26.683 8.949441 3.284883 30.388234 3.19646
2004-04-13 10:25:56 51°26.541 3°26.688 8.947629 3.283093 30.388857 3.331298
2004-04-13 10:26:55 51°26.544 3°26.692 8.88067 3.282251 30.409767 3.870648
2004-04-13 10:27:56 51°26.544 3°26.697 8.856139 3.280671 30.438675 4.612255
2004-04-13 10:28:56 51°26.541 3°26.702 8.855041 3.279829 30.439902 4.713383
2004-04-13 10:29:56 51°26.538 3°26.708 8.868358 3.279408 30.435572 4.376289
2004-04-13 10:30:56 51°26.536 3°26.715 8.920549 3.280987 30.422163 3.466136
2004-04-13 10:31:56 51°26.535 3°26.724 8.977367 3.284251 30.40777 3.432426
2004-04-13 10:32:55 51°26.534 3°26.734 9.119242 3.289411 30.401614 3.095332
2004-04-13 10:33:56 51°26.535 3°26.748 9.059693 3.290358 30.344065 2.758238
2004-04-13 10:34:55 51°26.508 3°26.771 8.948249 3.284357 30.403925 4.477418
2004-04-13 10:35:56 51°26.355 3°26.775 8.834559 3.281409 30.446252 5.252734
2004-04-13 10:36:55 51°26.149 3°26.783 8.823623 3.273721 30.396867 9.129315
2004-04-13 10:37:55 51°25.935 3°26.7 8.820806 3.274037 30.405059 8.387708
2004-04-13 10:38:56 51°25.736 3°26.496 8.818513 3.286043 30.53568 10.679947
2004-04-13 10:39:56 51°25.64 3°26.128 8.85843 3.286043 30.519371 8.016905
2004-04-13 10:40:56 51°25.656 3°25.719 8.82157 3.282568 30.492113 7.983195
2004-04-13 10:41:55 51°25.665 3°25.313 8.952396 3.274247 30.39593 5.623537
2004-04-13 10:42:55 51°25.635 3°24.912 8.980082 3.309001 30.633391 5.724665
2004-04-13 10:43:56 51°25.626 3°24.504 8.943768 3.32343 30.745202 6.837076
2004-04-13 10:44:56 51°25.644 3°24.097 8.898227 3.321009 30.808588 6.870785
2004-04-13 10:45:57 51°25.658 3°23.68 8.92813 3.321325 30.822546 8.623674
2004-04-13 10:46:55 51°25.673 3°23.286 8.892264 3.320061 30.806692 9.028187
2004-04-13 10:47:56 51°25.688 3°22.873 8.880336 3.31627 30.791249 9.028187
2004-04-13 10:48:55 51°25.706 3°22.476 8.904762 3.316164 30.780173 8.522546
2004-04-13 10:49:56 51°25.73 3°22.061 8.94844 3.322273 30.815159 8.623674
2004-04-13 10:50:56 51°25.74 3°21.648 9.023757 3.330698 30.848214 8.488836
2004-04-13 10:51:55 51°25.733 3°21.247 9.021138 3.355661 31.103887 9.163024
2004-04-13 10:52:56 51°25.729 3°20.834 9.046558 3.373462 31.267379 9.533828
2004-04-13 10:53:55 51°25.725 3°20.436 9.008472 3.39179 31.444218 9.601247
2004-04-13 10:54:55 51°25.722 3°20.031 8.995326 3.404536 31.586992 9.095606
2004-04-13 10:55:56 51°25.719 3°19.621 8.974937 3.413807 31.722004 10.073178
2004-04-13 10:56:56 51°25.711 3°19.219 9.035468 3.423392 31.791436 9.4327
2004-04-13 10:57:56 51°25.689 3°18.82 8.970934 3.426869 31.863352 10.208016
2004-04-13 10:58:56 51°25.667 3°18.42 9.00771 3.424025 31.804566 9.297862
2004-04-13 10:59:56 51°25.644 3°18.023 9.01071 3.424656 31.777288 8.927059
2004-04-13 11:00:55 51°25.622 3°17.633 9.004233 3.423603 31.81567 8.691093
2004-04-13 11:01:56 51°25.601 3°17.23 8.981702 3.428765 31.851959 6.904494
2004-04-13 11:02:55 51°25.579 3°16.842 9.206516 3.436455 31.924607 6.803366
2004-04-13 11:03:55 51°25.566 3°16.448 9.089332 3.399269 31.502222 5.960631
2004-04-13 11:04:56 51°25.555 3°16.047 9.030612 3.390947 31.403646 5.387571
2004-04-13 11:05:56 51°25.542 3°15.654 9.112205 3.386945 31.383527 6.061759
2004-04-13 11:06:55 51°25.538 3°15.267 9.056933 3.388841 31.417519 7.073042
2004-04-13 11:07:55 51°25.526 3°14.874 8.907386 3.390526 31.451557 6.837076
2004-04-13 11:08:56 51°25.515 3°14.473 8.902997 3.388315 31.497957 8.151742
2004-04-13 11:09:56 51°25.509 3°14.077 8.942624 3.400956 31.65253 9.196734
2004-04-13 11:10:56 51°25.503 3°13.679 9.128892 3.407908 31.709618 8.488836
2004-04-13 11:11:57 51°25.495 3°13.274 9.032421 3.428237 31.778947 3.836939
2004-04-13 11:12:56 51°25.507 3°12.883 8.900946 3.453101 32.194533 6.499982
2004-04-13 11:13:55 51°25.524 3°12.495 8.877139 3.452469 32.201435 5.690956
2004-04-13 11:14:56 51°25.547 3°12.098 8.867308 3.45131 32.195414 5.859503
2004-04-13 11:15:56 51°25.588 3°11.717 8.843536 3.448045 32.207201 8.219161
2004-04-13 11:16:56 51°25.676 3°11.367 8.820662 3.448466 32.199594 8.387708
2004-04-13 11:17:56 51°25.809 3°11.063 8.830309 3.451838 32.263029 11.185589
2004-04-13 11:18:56 51°25.975 3°10.812 8.851604 3.461213 32.300234 10.376563
2004-04-13 11:19:56 51°26.19 3°10.675 8.824197 3.463952 32.354903 10.140597
2004-04-13 11:20:56 51°26.408 3°10.75 8.823146 3.466165 32.396666 10.140597
2004-04-13 11:21:56 51°26.583 3°10.975 8.841435 3.469009 32.424679 9.904631
2004-04-13 11:22:55 51°26.749 3°11.2 8.816841 3.472485 32.439647 8.927059
2004-04-13 11:23:56 51°26.898 3°11.463 8.812399 3.471116 32.446548 10.612529
2004-04-13 11:24:56 51°27.046 3°11.722 8.790901 3.468167 32.440822 11.354136
2004-04-13 11:25:56 51°27.192 3°11.981 8.790184 3.467429 32.436936 11.11817
2004-04-13 11:26:56 51°27.334 3°12.243 8.830548 3.468482 32.425243 11.792358
2004-04-13 11:27:56 51°27.472 3°12.514 8.851747 3.467218 32.390279 12.196871
2004-04-13 11:28:56 51°27.618 3°12.776 8.845445 3.462372 32.332505 11.826067
2004-04-13 11:29:56 51°27.758 3°13.049 8.858717 3.459527 32.291015 12.904768
2004-04-13 11:30:55 51°27.878 3°13.333 8.916018 3.456893 32.233789 12.297999
2004-04-13 11:31:55 51°27.999 3°13.624 8.89837 3.451731 32.190065 12.297999
2004-04-13 11:32:56 51°28.122 3°13.92 8.907767 3.451099 32.176056 12.76993
2004-04-13 11:33:55 51°28.245 3°14.202 8.925317 3.451415 32.147264 11.387845
2004-04-13 11:34:55 51°28.368 3°14.492 8.925794 3.448676 32.140543 12.23058
2004-04-13 11:35:56 51°28.494 3°14.79 8.961499 3.44994 32.126805 10.106888
2004-04-13 11:36:55 51°28.616 3°15.076 9.026185 3.45468 32.118527 8.82593
2004-04-13 11:37:56 51°28.741 3°15.369 9.008757 3.455312 32.12208 10.106888
2004-04-13 11:38:56 51°28.86 3°15.656 9.018233 3.454258 32.104529 11.185589
2004-04-13 11:39:56 51°28.98 3°15.833 9.052317 3.453731 32.085746 10.106888
2004-04-13 11:40:56 51°29.043 3°15.932 8.999947 3.452783 32.063377 7.342717
2004-04-13 11:41:56 51°29.064 3°15.967 8.968742 3.444567 32.047518 8.792221
2004-04-13 11:42:55 51°29.086 3°15.97 8.976843 3.44383 32.040645 7.882067
2004-04-13 11:43:56 51°29.115 3°15.965 8.9696 3.444356 32.043859 7.780939
2004-04-13 11:44:56 51°29.144 3°15.949 9.005519 3.44541 32.049545 8.016905
2004-04-13 11:45:56 51°29.174 3°15.919 9.035515 3.449202 32.050141 7.477554
2004-04-13 11:46:56 51°29.2 3°15.877 9.0089 3.450992 32.059723 6.735947
2004-04-13 11:47:55 51°29.222 3°15.825 8.961642 3.447201 32.071005 8.455127
2004-04-13 11:48:56 51°29.241 3°15.765 8.964644 3.446253 32.070864 8.185452
2004-04-13 11:49:56 51°29.258 3°15.701 8.965978 3.446779 32.07482 7.74723
2004-04-13 11:50:56 51°29.273 3°15.634 8.975509 3.447201 32.073975 7.207879
2004-04-13 11:51:56 51°29.287 3°15.564 8.971077 3.447095 32.075114 7.511264
2004-04-13 11:52:56 51°29.299 3°15.491 8.981845 3.447201 32.071748 7.039332
2004-04-13 11:53:56 51°29.31 3°15.393 8.977367 3.449307 32.068274 7.74723
2004-04-13 11:54:55 51°29.349 3°15.092 8.936951 3.445621 32.065819 8.556255
2004-04-13 11:55:56 51°29.412 3°14.723 8.937523 3.443198 32.06232 10.342853
2004-04-13 11:56:55 51°29.474 3°14.356 8.931039 3.445094 32.08192 10.983332
2004-04-13 11:57:56 51°29.538 3°13.976 8.919833 3.449308 32.131437 12.095742
2004-04-13 11:58:56 51°29.6 3°13.601 8.896033 3.45131 32.182716 11.590101
2004-04-13 11:59:56 51°29.664 3°13.226 8.876137 3.452258 32.204485 11.859777
2004-04-13 12:00:56 51°29.727 3°12.849 8.861819 3.454576 32.247948 12.432836
2004-04-13 12:01:56 51°29.791 3°12.472 8.857857 3.458685 32.296531 12.23058
2004-04-13 12:02:55 51°29.857 3°12.101 8.825295 3.463004 32.351083 11.69123
2004-04-13 12:03:55 51°29.931 3°11.73 8.83327 3.467218 32.412874 10.781076
2004-04-13 12:04:55 51°30.004 3°11.361 8.829593 3.474593 32.478105 8.927059
2004-04-13 12:05:55 51°30.077 3°10.991 8.887875 3.483231 32.545096 6.769657
2004-04-13 12:06:57 51°30.15 3°10.609 8.835992 3.49482 32.641873 5.522409
2004-04-13 12:07:55 51°30.219 3°10.253 8.851699 3.495769 32.707895 5.556118
2004-04-13 12:08:56 51°30.292 3°9.881 8.977128 3.501457 32.690255 4.072905
2004-04-13 12:09:56 51°30.363 3°9.515 9.085622 3.509146 32.650394 2.6234
2004-04-13 12:10:56 51°30.434 3°9.152 9.038038 3.514624 32.683621 2.185178
2004-04-13 12:11:56 51°30.504 3°8.789 8.986466 3.510727 32.693164 2.218888
2004-04-13 12:12:56 51°30.575 3°8.424 8.993564 3.507567 32.692218 2.353725
2004-04-13 12:13:57 51°30.646 3°8.052 9.06093 3.515362 32.719187 2.353725
2004-04-13 12:14:56 51°30.712 3°7.692 9.03404 3.524317 32.769408 2.488563
2004-04-13 12:15:56 51°30.778 3°7.327 8.883294 3.507672 32.736504 1.713247
2004-04-13 12:16:57 51°30.847 3°6.957 8.936522 3.506197 32.710597 2.6234
2004-04-13 12:17:56 51°30.912 3°6.609 8.929752 3.506198 32.739428 4.612255
2004-04-13 12:18:55 51°30.958 3°6.355 8.929132 3.506619 32.714965 3.870648
2004-04-13 12:19:55 51°30.971 3°6.185 8.980797 3.504828 32.692615 3.904358
2004-04-13 12:20:55 51°30.965 3°6.053 9.027756 3.50862 32.674388 3.432426
2004-04-13 12:21:57 51°30.961 3°5.952 9.00671 3.510095 32.680579 3.836939
2004-04-13 12:22:55 51°30.964 3°5.882 9.024137 3.509779 32.679577 3.870648
2004-04-13 12:23:56 51°30.967 3°5.815 9.017138 3.5102 32.68318 3.80323
2004-04-13 12:24:55 51°30.966 3°5.754 9.01071 3.509779 32.685622 3.735811
2004-04-13 12:25:57 51°30.961 3°5.691 9.027232 3.509463 32.680085 3.80323
2004-04-13 12:26:56 51°30.953 3°5.635 9.014472 3.509779 32.680332 3.938067
2004-04-13 12:27:57 51°30.944 3°5.578 9.016853 3.509252 32.67715 3.971777
2004-04-13 12:28:55 51°30.934 3°5.526 9.011472 3.509147 32.675304 4.005486
2004-04-13 12:29:55 51°30.919 3°5.477 8.978558 3.507777 32.678516 3.938067
2004-04-13 12:30:55 51°30.899 3°5.431 8.930562 3.503353 32.684148 4.511127
2004-04-13 12:31:57 51°30.873 3°5.394 8.963215 3.503037 32.679358 4.713383
2004-04-13 12:32:55 51°30.843 3°5.371 9.010853 3.506724 32.675928 4.88193
2004-04-13 12:33:55 51°30.812 3°5.362 9.034135 3.509673 32.673954 5.050477
2004-04-13 12:34:56 51°30.756 3°5.35 9.046987 3.511043 32.67075 5.219024
2004-04-13 12:35:57 51°30.69 3°5.126 9.089284 3.511148 32.665048 4.34258
2004-04-13 12:36:56 51°30.749 3°4.787 8.900994 3.510727 32.700725 5.758375
2004-04-13 12:37:56 51°30.837 3°4.441 9.126895 3.502089 32.696811 7.848358
2004-04-13 12:38:57 51°30.951 3°4.107 9.056029 3.519259 32.660658 5.252734
2004-04-13 12:39:55 51°31.08 3°3.807 9.277076 3.518311 32.647123 5.117896
2004-04-13 12:40:55 51°31.21 3°3.494 9.118434 3.54349 32.746288 3.971777
2004-04-13 12:41:57 51°31.344 3°3.176 8.852368 3.537804 32.943741 8.320289
2004-04-13 12:42:57 51°31.484 3°2.886 8.792621 3.524636 33.001198 12.163161
2004-04-13 12:43:57 51°31.626 3°2.596 9.115914 3.522846 33.085674 15.432973
2004-04-13 12:44:55 51°31.763 3°2.317 8.942481 3.522422 32.840759 5.758375
2004-04-13 12:45:57 51°31.911 3°2.019 9.059645 3.520315 32.850866 5.522409
2004-04-13 12:46:57 51°32.053 3°1.726 9.198777 3.534852 32.822998 5.825794
2004-04-13 12:47:55 51°32.193 3°1.445 9.179781 3.553079 32.91413 6.196597
2004-04-13 12:48:57 51°32.355 3°1.168 9.131696 3.55603 33.014241 7.646101
2004-04-13 12:49:55 51°32.515 3°0.93 9.065117 3.553924 33.116739 7.848358
2004-04-13 12:50:56 51°32.682 3°0.677 9.108354 3.54697 33.008878 5.589828
2004-04-13 12:51:56 51°32.845 3°0.428 9.024471 3.547497 33.02881 5.084187
2004-04-13 12:52:56 51°32.964 3°0.224 9.081578 3.54834 33.036007 5.45499
2004-04-13 12:53:57 51°32.994 3°0.131 9.127466 3.551816 33.04376 5.286443
2004-04-13 12:54:55 51°33.008 3°0.1 9.145764 3.557505 33.052282 4.679674
2004-04-13 12:55:57 51°33.027 3°0.076 9.127038 3.557716 33.078074 6.02805
2004-04-13 12:56:56 51°33.047 3°0.048 8.971935 3.557927 33.093218 5.926922
2004-04-13 12:57:56 51°33.065 3°0.007 8.801985 3.549711 33.232095 11.320426
2004-04-13 12:58:55 51°33.077 2°59.952 8.760934 3.550556 33.335366 15.264426
2004-04-13 12:59:57 51°33.08 2°59.883 8.743004 3.549923 33.307034 14.792494
2004-04-13 13:00:57 51°33.075 2°59.809 8.750703 3.552663 33.359692 16.006033
2004-04-13 13:01:56 51°33.06 2°59.733 8.828733 3.55203 33.330565 14.253144
2004-04-13 13:02:55 51°33.036 2°59.658 8.926509 3.552029 33.237686 9.870922
2004-04-13 13:03:56 51°33 2°59.588 9.07568 3.553609 33.164817 7.106751
2004-04-13 13:04:55 51°32.958 2°59.534 9.143863 3.558664 33.089399 4.983059
2004-04-13 13:05:55 51°32.91 2°59.498 9.169378 3.560982 33.076766 4.477418
2004-04-13 13:06:55 51°32.862 2°59.485 9.156076 3.560982 33.076005 4.544836
2004-04-13 13:07:56 51°32.816 2°59.49 9.167193 3.561614 33.077963 4.578546
2004-04-13 13:08:56 51°32.776 2°59.511 9.164628 3.5633 33.093083 4.747093
2004-04-13 13:09:56 51°32.743 2°59.542 9.140964 3.561087 33.085471 4.91564
2004-04-13 13:10:57 51°32.716 2°59.581 9.135119 3.559823 33.089938 5.320153
2004-04-13 13:11:56 51°32.649 2°59.756 9.008138 3.560983 33.127867 5.4887
2004-04-13 13:12:56 51°32.433 2°59.852 8.952491 3.552344 33.167825 7.780939
2004-04-13 13:13:56 51°32.203 2°59.738 8.915446 3.549289 33.109279 7.814648
2004-04-13 13:14:57 51°31.974 2°59.585 8.873321 3.549078 33.138535 8.691093
2004-04-13 13:15:57 51°31.748 2°59.429 9.175743 3.553397 33.106693 8.28658
2004-04-13 13:16:55 51°31.532 2°59.276 9.174746 3.561614 33.04526 5.657247
2004-04-13 13:17:55 51°31.309 2°59.117 9.197115 3.559191 33.039259 8.252871
2004-04-13 13:18:56 51°31.083 2°58.954 9.14852 3.550762 32.977339 7.646101
2004-04-13 13:19:56 51°30.858 2°58.811 9.350118 3.556872 32.968323 6.803366
2004-04-13 13:20:56 51°30.631 2°58.677 9.333914 3.556133 32.876918 5.151606
2004-04-13 13:21:56 51°30.405 2°58.542 9.234047 3.552236 32.898655 4.275161
2004-04-13 13:22:55 51°30.183 2°58.409 9.190609 3.549181 32.914045 4.039195
2004-04-13 13:23:56 51°29.955 2°58.27 9.162442 3.544124 32.917926 4.409999
2004-04-13 13:24:56 51°29.729 2°58.134 9.130413 3.544966 32.881194 4.679674
2004-04-13 13:25:57 51°29.499 2°57.999 8.968313 3.543388 33.001534 6.162888
2004-04-13 13:26:56 51°29.276 2°57.867 9.08134 3.539701 33.030526 8.893349
2004-04-13 13:27:55 51°29.052 2°57.733 8.965645 3.545811 33.030435 7.309007
2004-04-13 13:28:56 51°28.819 2°57.59 8.825008 3.541388 33.121643 16.646512
2004-04-13 13:29:56 51°28.59 2°57.451 8.890976 3.537595 33.124511 20.556802
2004-04-13 13:30:56 51°28.36 2°57.306 8.941623 3.541388 33.117031 19.376973
2004-04-13 13:31:56 51°28.129 2°57.162 9.102981 3.546865 33.051271 15.534101
2004-04-13 13:32:56 51°27.899 2°57.016 9.119717 3.549603 32.984362 14.084597
2004-04-13 13:33:56 51°27.67 2°56.865 9.058646 3.546654 33.023901 16.444255
2004-04-13 13:34:55 51°27.446 2°56.715 9.307374 3.536749 32.834249 13.34299
2004-04-13 13:35:56 51°27.215 2°56.564 9.449523 3.534323 32.608122 8.185452
2004-04-13 13:36:57 51°26.984 2°56.412 9.432871 3.525156 32.464448 5.792084
2004-04-13 13:37:56 51°26.761 2°56.265 9.439968 3.525683 32.469838 5.926922
2004-04-13 13:38:56 51°26.533 2°56.116 9.445171 3.535903 32.623577 8.82593
2004-04-13 13:39:56 51°26.306 2°55.967 9.351112 3.540118 32.650362 8.994477
2004-04-13 13:40:55 51°26.077 2°55.847 9.457894 3.538012 32.722256 12.264289
2004-04-13 13:41:55 51°25.843 2°55.74 9.520103 3.546543 32.603751 7.848358
2004-04-13 13:42:55 51°25.607 2°55.632 9.444462 3.537482 32.490498 6.5674
2004-04-13 13:43:56 51°25.367 2°55.52 9.404857 3.524313 32.454343 8.960768
2004-04-13 13:44:55 51°25.134 2°55.41 9.550524 3.519466 32.371523 7.578683
2004-04-13 13:45:55 51°24.897 2°55.3 9.687949 3.521361 32.263686 5.219024
2004-04-13 13:46:57 51°24.654 2°55.184 9.686252 3.528103 32.237219 4.140324
2004-04-13 13:47:56 51°24.423 2°55.073 9.450327 3.515251 32.241019 3.80323
2004-04-13 13:48:56 51°24.188 2°54.956 9.455057 3.504612 32.286039 4.679674
2004-04-13 13:49:57 51°23.949 2°54.838 9.489195 3.504506 32.225328 3.971777
2004-04-13 13:50:57 51°23.712 2°54.722 9.233525 3.499871 32.211777 4.949349
2004-04-13 13:51:57 51°23.474 2°54.607 9.122427 3.47933 32.27832 10.174306
2004-04-13 13:52:56 51°23.238 2°54.491 9.238033 3.480805 32.244471 8.252871
2004-04-13 13:53:55 51°23.002 2°54.378 9.440535 3.488072 32.154329 4.645965
2004-04-13 13:54:57 51°22.757 2°54.255 9.320314 3.489652 32.160941 6.634819
2004-04-13 13:55:57 51°22.518 2°54.132 9.655706 3.486385 32.022089 4.34258
2004-04-13 13:56:57 51°22.281 2°54.015 9.788016 3.485223 31.757864 2.353725
2004-04-13 13:57:55 51°22.052 2°53.898 9.738166 3.47395 31.668168 2.218888
2004-04-13 13:58:56 51°21.813 2°53.776 9.642974 3.466576 31.635026 2.286306
2004-04-13 13:59:56 51°21.58 2°53.658 9.62491 3.459835 31.634051 2.555982
2004-04-13 14:00:56 51°21.344 2°53.541 9.466596 3.45678 31.640378 2.6234
2004-04-13 14:01:55 51°21.112 2°53.424 9.426011 3.448249 31.650789 2.960494
2004-04-13 14:02:56 51°20.871 2°53.301 9.393259 3.445194 31.663701 3.466136
2004-04-13 14:03:56 51°20.634 2°53.182 9.586217 3.450039 31.650275 3.061623
2004-04-13 14:04:55 51°20.4 2°53.061 9.785992 3.463627 31.623759 2.758238
2004-04-13 14:05:57 51°20.155 2°52.934 9.816336 3.465417 31.562574 2.65711
2004-04-13 14:06:57 51°19.916 2°52.833 9.868288 3.470367 31.512305 2.589691
2004-04-13 14:07:55 51°19.686 2°52.736 9.744429 3.45309 31.38273 2.859366
2004-04-13 14:08:56 51°19.445 2°52.63 9.528654 3.43097 31.337757 4.174033
2004-04-13 14:09:55 51°19.209 2°52.553 9.447394 3.416329 31.320155 6.02805
2004-04-13 14:10:57 51°18.96 2°52.483 9.396573 3.409167 31.296526 6.668529
2004-04-13 14:11:56 51°18.722 2°52.417 9.433439 3.407798 31.284009 7.443845
2004-04-13 14:12:57 51°18.476 2°52.365 9.342822 3.408535 31.327278 12.028324
2004-04-13 14:13:57 51°18.233 2°52.334 9.270626 3.402426 31.314387 14.826204
2004-04-13 14:14:55 51°17.997 2°52.304 9.194503 3.39379 31.299332 19.511811
2004-04-13 14:15:56 51°17.75 2°52.303 9.254403 3.38747 31.256936 22.646785
2004-04-13 14:16:56 51°17.506 2°52.321 9.19626 3.387469 31.221074 22.91646
2004-04-13 14:17:56 51°17.261 2°52.343 9.199204 3.379991 31.196182 32.557349
2004-04-13 14:18:56 51°17.04 2°52.469 9.251461 3.383572 31.192691 36.838443
2004-04-13 14:19:57 51°16.815 2°52.605 9.226406 3.393473 31.280302 38.69246
2004-04-13 14:20:56 51°16.594 2°52.739 9.332967 3.397476 31.343524 33.602341
2004-04-13 14:21:57 51°16.364 2°52.87 9.380713 3.413592 31.36378 22.849042
2004-04-13 14:22:57 51°16.141 2°52.99 9.373373 3.414645 31.380253 21.129862
2004-04-13 14:23:57 51°15.917 2°53.101 9.455435 3.394631 31.17131 17.354409
2004-04-13 14:24:56 51°15.696 2°53.214 9.432635 3.395367 31.139697 19.54552
2004-04-13 14:25:56 51°15.492 2°53.38 9.462482 3.39779 31.14161 13.781212
2004-04-13 14:26:56 51°15.301 2°53.576 9.419197 3.390101 31.093933 14.084597
2004-04-13 14:27:57 51°15.109 2°53.779 9.31984 3.375038 30.997354 16.140871
2004-04-13 14:28:56 51°14.931 2°53.989 9.296423 3.363874 30.935313 19.848905
2004-04-13 14:29:56 51°14.754 2°54.215 9.287746 3.354921 30.865256 22.781623
2004-04-13 14:30:56 51°14.593 2°54.468 9.365748 3.35334 30.794795 22.309691
2004-04-13 14:31:56 51°14.476 2°54.753 9.578145 0.074606 0.5266 -0.275608
2004-04-13 14:32:57 51°14.368 2°55.039 9.713486 0.057557 0.401872 -0.309317